This is the latest recevied weather packets stored in our database for station/object W5SDC. If no packets are shown the sender has not sent any weather packets the latest 10 day(s).
| Time | Temp. | Humidity | Pressure | Rain* | Wind** | Luminosity | Snow |
|---|---|---|---|---|---|---|---|
| 1777068340 | 33.33° C | 53% | 1005.7 hPa | 0 mm | - | - | - |
| 1777067733 | 33.33° C | 53% | 1005.9 hPa | 0 mm | - | - | - |
| 1777065643 | 33.89° C | 54% | 1006.2 hPa | 0 mm | - | - | - |
| 1777065018 | 34.44° C | 54% | 1006.2 hPa | 0 mm | - | - | - |
| 1777064119 | 33.89° C | 56% | 1006.5 hPa | 0 mm | - | - | - |
| 1777062615 | 33.33° C | 56% | 1006.9 hPa | 0 mm | - | - | - |
| 1777061718 | 33.33° C | 58% | 1007.1 hPa | 0 mm | - | - | - |
| 1777061423 | 33.33° C | 57% | 1007.1 hPa | 0 mm | - | - | - |
| 1777061170 | 33.33° C | 58% | 1007.1 hPa | 0 mm | - | - | - |
| 1777055152 | 32.22° C | 65% | 1008.2 hPa | 0 mm | - | - | - |
| 1777053316 | 31.11° C | 69% | 1008.4 hPa | 0 mm | - | - | - |
| 1777050932 | 28.89° C | 74% | 1009.1 hPa | 0 mm | - | - | - |
| 1777048529 | 28.33° C | 77% | 1009.1 hPa | 0 mm | - | - | - |
| 1777048237 | 28.33° C | 77% | 1009.1 hPa | 0 mm | - | - | - |
| 1777046731 | 27.78° C | 78% | 1009.1 hPa | 0 mm | - | - | - |
| 1777045522 | 27.22° C | 80% | 1009.1 hPa | 0 mm | - | - | - |
| 1777045228 | 27.22° C | 80% | 1009.1 hPa | 0 mm | - | - | - |
| 1777038020 | 23.89° C | 90% | 1009.5 hPa | 0 mm | - | - | - |
| 1777034132 | 22.78° C | 95% | 1008.9 hPa | 0 mm | - | - | - |
| 1777032921 | 22.22° C | 95% | 1008.7 hPa | 0 mm | - | - | - |
| 1777032316 | 22.22° C | 96% | 1008.6 hPa | 0 mm | - | - | - |
| 1777027529 | 22.22° C | 97% | 1007.8 hPa | 0 mm | - | - | - |
| 1777027217 | 22.22° C | 97% | 1007.8 hPa | 0 mm | - | - | - |
| 1777026045 | 22.22° C | 97% | 1007.6 hPa | 0 mm | - | - | - |
| 1777023936 | 22.22° C | 97% | 1007.7 hPa | 0 mm | - | - | - |
* Rain latest hour (hover to see other rain measurements)
** Current wind speed in m/s (hover to see current wind gust speed)